Terminal Aerodrome Forecast
Issued by NWS Green Bay, WI

Home | Current Version | Previous Version | Text Only | Print | Product List | Glossary On
Versions: 1 2 3 4 5 6 7 8 9 10 11 12 13 14 15 16 17 18
000
FTUS43 KGRB 232330
TAFGRB
TAF
KGRB 232330Z 2400/2424 05008KT P6SM SCT025 BKN060
     FM240500 04014G25KT 5SM -SN OVC025
     FM240800 03016G28KT 2SM -SN OVC015
     FM241000 03019G30KT 1SM -SN OVC008
     FM241400 03020G32KT 2SM -FZRAPL BR OVC010
     FM241900 03020G32KT 2SM -SNPL BR OVC008=

USA.gov is the U.S. government's official web portal to all federal, state and local government web resources and services.